sensor_id;sensor_type;location;lat;lon;timestamp;P1;durP1;ratioP1;P2;durP2;ratioP2
65533;SDS011;53640;55.838;37.184;2023-03-29T00:00:58;5.20;;;3.58;;
65533;SDS011;53640;55.838;37.184;2023-03-29T00:03:25;6.22;;;4.07;;
65533;SDS011;53640;55.838;37.184;2023-03-29T00:05:52;5.72;;;3.80;;
65533;SDS011;53640;55.838;37.184;2023-03-29T00:08:28;5.60;;;4.18;;
65533;SDS011;53640;55.838;37.184;2023-03-29T00:10:57;4.15;;;3.63;;
65533;SDS011;53640;55.838;37.184;2023-03-29T00:13:26;5.43;;;4.07;;
65533;SDS011;53640;55.838;37.184;2023-03-29T00:15:53;5.55;;;3.75;;
65533;SDS011;53640;55.838;37.184;2023-03-29T00:18:19;4.63;;;3.95;;
65533;SDS011;53640;55.838;37.184;2023-03-29T00:20:52;7.85;;;5.35;;
65533;SDS011;53640;55.838;37.184;2023-03-29T00:23:22;8.88;;;5.32;;
65533;SDS011;53640;55.838;37.184;2023-03-29T00:25:51;7.05;;;5.10;;
65533;SDS011;53640;55.838;37.184;2023-03-29T00:28:18;6.72;;;4.60;;
65533;SDS011;53640;55.838;37.184;2023-03-29T00:30:46;7.72;;;4.70;;
65533;SDS011;53640;55.838;37.184;2023-03-29T00:33:13;6.68;;;4.00;;
65533;SDS011;53640;55.838;37.184;2023-03-29T00:35:42;7.03;;;4.28;;
65533;SDS011;53640;55.838;37.184;2023-03-29T00:38:13;4.75;;;3.83;;
65533;SDS011;53640;55.838;37.184;2023-03-29T00:40:43;4.82;;;4.03;;
65533;SDS011;53640;55.838;37.184;2023-03-29T00:43:12;5.07;;;3.90;;
65533;SDS011;53640;55.838;37.184;2023-03-29T00:45:41;6.53;;;4.03;;
65533;SDS011;53640;55.838;37.184;2023-03-29T00:48:11;6.22;;;4.15;;
65533;SDS011;53640;55.838;37.184;2023-03-29T00:53:41;4.68;;;3.58;;
65533;SDS011;53640;55.838;37.184;2023-03-29T00:56:36;6.50;;;4.13;;
65533;SDS011;53640;55.838;37.184;2023-03-29T00:59:09;5.30;;;3.88;;
65533;SDS011;53640;55.838;37.184;2023-03-29T01:01:44;7.40;;;4.00;;
65533;SDS011;53640;55.838;37.184;2023-03-29T01:04:32;5.35;;;4.00;;
65533;SDS011;53640;55.838;37.184;2023-03-29T01:09:38;7.22;;;4.40;;
65533;SDS011;53640;55.838;37.184;2023-03-29T01:12:16;4.10;;;3.70;;
65533;SDS011;53640;55.838;37.184;2023-03-29T01:17:21;3.97;;;3.57;;
65533;SDS011;53640;55.838;37.184;2023-03-29T01:20:01;6.03;;;4.05;;
65533;SDS011;53640;55.838;37.184;2023-03-29T01:25:35;4.10;;;3.50;;
65533;SDS011;53640;55.838;37.184;2023-03-29T01:28:12;6.50;;;3.70;;
65533;SDS011;53640;55.838;37.184;2023-03-29T01:30:50;3.75;;;3.45;;
65533;SDS011;53640;55.838;37.184;2023-03-29T01:33:24;4.10;;;3.42;;
65533;SDS011;53640;55.838;37.184;2023-03-29T01:36:08;6.90;;;3.58;;
65533;SDS011;53640;55.838;37.184;2023-03-29T01:38:46;5.45;;;3.00;;
65533;SDS011;53640;55.838;37.184;2023-03-29T01:41:18;5.35;;;3.33;;
65533;SDS011;53640;55.838;37.184;2023-03-29T01:46:17;6.30;;;3.35;;
65533;SDS011;53640;55.838;37.184;2023-03-29T01:49:02;6.20;;;3.75;;
65533;SDS011;53640;55.838;37.184;2023-03-29T01:51:41;7.07;;;3.35;;
65533;SDS011;53640;55.838;37.184;2023-03-29T01:54:30;4.43;;;3.50;;
65533;SDS011;53640;55.838;37.184;2023-03-29T01:57:02;5.70;;;3.78;;
65533;SDS011;53640;55.838;37.184;2023-03-29T01:59:32;5.15;;;3.63;;
65533;SDS011;53640;55.838;37.184;2023-03-29T02:02:03;5.78;;;3.20;;
65533;SDS011;53640;55.838;37.184;2023-03-29T02:04:35;4.13;;;3.20;;
65533;SDS011;53640;55.838;37.184;2023-03-29T02:07:05;4.30;;;3.43;;
65533;SDS011;53640;55.838;37.184;2023-03-29T02:09:35;4.68;;;3.05;;
65533;SDS011;53640;55.838;37.184;2023-03-29T02:12:03;8.10;;;3.88;;
65533;SDS011;53640;55.838;37.184;2023-03-29T02:14:33;4.75;;;3.38;;
65533;SDS011;53640;55.838;37.184;2023-03-29T02:17:21;4.82;;;3.28;;
65533;SDS011;53640;55.838;37.184;2023-03-29T02:20:36;3.80;;;2.85;;
65533;SDS011;53640;55.838;37.184;2023-03-29T02:25:22;4.10;;;3.17;;
65533;SDS011;53640;55.838;37.184;2023-03-29T02:27:51;6.60;;;3.42;;
65533;SDS011;53640;55.838;37.184;2023-03-29T02:30:18;4.15;;;3.22;;
65533;SDS011;53640;55.838;37.184;2023-03-29T02:33:03;4.93;;;3.20;;
65533;SDS011;53640;55.838;37.184;2023-03-29T02:35:38;5.38;;;3.20;;
65533;SDS011;53640;55.838;37.184;2023-03-29T02:38:11;4.78;;;3.55;;
65533;SDS011;53640;55.838;37.184;2023-03-29T02:40:39;4.32;;;3.10;;
65533;SDS011;53640;55.838;37.184;2023-03-29T02:43:08;5.63;;;3.90;;
65533;SDS011;53640;55.838;37.184;2023-03-29T02:45:37;4.47;;;3.35;;
65533;SDS011;53640;55.838;37.184;2023-03-29T02:48:11;3.00;;;2.70;;
65533;SDS011;53640;55.838;37.184;2023-03-29T02:50:43;7.07;;;3.30;;
65533;SDS011;53640;55.838;37.184;2023-03-29T02:53:21;5.13;;;3.42;;
65533;SDS011;53640;55.838;37.184;2023-03-29T02:55:52;4.10;;;3.53;;
65533;SDS011;53640;55.838;37.184;2023-03-29T02:58:18;6.07;;;3.58;;
65533;SDS011;53640;55.838;37.184;2023-03-29T03:00:46;4.93;;;4.10;;
65533;SDS011;53640;55.838;37.184;2023-03-29T03:03:14;4.20;;;3.33;;
65533;SDS011;53640;55.838;37.184;2023-03-29T03:05:44;3.75;;;3.20;;
65533;SDS011;53640;55.838;37.184;2023-03-29T03:08:11;4.85;;;3.42;;
65533;SDS011;53640;55.838;37.184;2023-03-29T03:10:37;6.70;;;3.85;;
65533;SDS011;53640;55.838;37.184;2023-03-29T03:13:04;5.30;;;3.53;;
65533;SDS011;53640;55.838;37.184;2023-03-29T03:15:31;5.90;;;3.80;;
65533;SDS011;53640;55.838;37.184;2023-03-29T03:18:02;3.85;;;3.45;;
65533;SDS011;53640;55.838;37.184;2023-03-29T03:20:29;4.70;;;3.08;;
65533;SDS011;53640;55.838;37.184;2023-03-29T03:22:56;4.43;;;3.38;;
65533;SDS011;53640;55.838;37.184;2023-03-29T03:25:23;8.45;;;3.67;;
65533;SDS011;53640;55.838;37.184;2023-03-29T03:27:50;5.90;;;3.75;;
65533;SDS011;53640;55.838;37.184;2023-03-29T03:30:20;6.95;;;3.30;;
65533;SDS011;53640;55.838;37.184;2023-03-29T03:33:05;8.05;;;3.70;;
65533;SDS011;53640;55.838;37.184;2023-03-29T03:35:51;9.52;;;3.83;;
65533;SDS011;53640;55.838;37.184;2023-03-29T03:38:17;7.53;;;3.63;;
65533;SDS011;53640;55.838;37.184;2023-03-29T03:40:52;6.30;;;3.45;;
65533;SDS011;53640;55.838;37.184;2023-03-29T03:43:22;4.80;;;3.88;;
65533;SDS011;53640;55.838;37.184;2023-03-29T03:45:50;9.50;;;3.67;;
65533;SDS011;53640;55.838;37.184;2023-03-29T03:48:21;6.53;;;3.25;;
65533;SDS011;53640;55.838;37.184;2023-03-29T03:53:21;9.68;;;3.38;;
65533;SDS011;53640;55.838;37.184;2023-03-29T03:56:14;6.82;;;3.45;;
65533;SDS011;53640;55.838;37.184;2023-03-29T03:58:56;11.88;;;4.00;;
65533;SDS011;53640;55.838;37.184;2023-03-29T04:01:27;9.50;;;3.83;;
65533;SDS011;53640;55.838;37.184;2023-03-29T04:08:11;6.93;;;3.45;;
65533;SDS011;53640;55.838;37.184;2023-03-29T04:11:01;8.38;;;3.50;;
65533;SDS011;53640;55.838;37.184;2023-03-29T04:13:36;7.95;;;3.65;;
65533;SDS011;53640;55.838;37.184;2023-03-29T04:16:22;6.90;;;4.03;;
65533;SDS011;53640;55.838;37.184;2023-03-29T04:18:57;8.38;;;3.70;;
65533;SDS011;53640;55.838;37.184;2023-03-29T04:21:23;8.50;;;3.85;;
65533;SDS011;53640;55.838;37.184;2023-03-29T04:23:49;8.93;;;3.67;;
65533;SDS011;53640;55.838;37.184;2023-03-29T04:26:16;8.65;;;3.40;;
65533;SDS011;53640;55.838;37.184;2023-03-29T04:28:49;6.60;;;3.30;;
65533;SDS011;53640;55.838;37.184;2023-03-29T04:31:21;8.45;;;3.90;;
65533;SDS011;53640;55.838;37.184;2023-03-29T04:34:22;5.10;;;3.15;;
65533;SDS011;53640;55.838;37.184;2023-03-29T04:36:57;7.00;;;3.25;;
65533;SDS011;53640;55.838;37.184;2023-03-29T04:39:24;7.35;;;3.15;;
65533;SDS011;53640;55.838;37.184;2023-03-29T04:41:59;11.65;;;3.63;;
65533;SDS011;53640;55.838;37.184;2023-03-29T04:44:29;7.35;;;3.50;;
65533;SDS011;53640;55.838;37.184;2023-03-29T04:47:00;13.45;;;3.83;;
65533;SDS011;53640;55.838;37.184;2023-03-29T04:49:38;6.00;;;3.53;;
65533;SDS011;53640;55.838;37.184;2023-03-29T04:52:10;7.95;;;3.58;;
65533;SDS011;53640;55.838;37.184;2023-03-29T04:54:37;7.28;;;3.35;;
65533;SDS011;53640;55.838;37.184;2023-03-29T04:57:18;6.97;;;3.30;;
65533;SDS011;53640;55.838;37.184;2023-03-29T04:59:55;7.35;;;3.90;;
65533;SDS011;53640;55.838;37.184;2023-03-29T05:02:54;6.88;;;3.00;;
65533;SDS011;53640;55.838;37.184;2023-03-29T05:05:23;4.63;;;3.45;;
65533;SDS011;53640;55.838;37.184;2023-03-29T05:07:54;5.30;;;3.45;;
65533;SDS011;53640;55.838;37.184;2023-03-29T05:10:27;4.78;;;3.50;;
65533;SDS011;53640;55.838;37.184;2023-03-29T05:12:54;5.10;;;3.30;;
65533;SDS011;53640;55.838;37.184;2023-03-29T05:15:22;9.05;;;3.50;;
65533;SDS011;53640;55.838;37.184;2023-03-29T05:17:52;7.88;;;4.03;;
65533;SDS011;53640;55.838;37.184;2023-03-29T05:20:20;5.22;;;3.40;;
65533;SDS011;53640;55.838;37.184;2023-03-29T05:22:49;8.05;;;3.67;;
65533;SDS011;53640;55.838;37.184;2023-03-29T05:25:37;7.47;;;3.85;;
65533;SDS011;53640;55.838;37.184;2023-03-29T05:28:04;8.15;;;3.60;;
65533;SDS011;53640;55.838;37.184;2023-03-29T05:30:31;9.10;;;3.50;;
65533;SDS011;53640;55.838;37.184;2023-03-29T05:33:12;5.25;;;3.45;;
65533;SDS011;53640;55.838;37.184;2023-03-29T05:35:39;5.60;;;3.38;;
65533;SDS011;53640;55.838;37.184;2023-03-29T05:38:08;4.60;;;3.38;;
65533;SDS011;53640;55.838;37.184;2023-03-29T05:40:35;9.63;;;3.78;;
65533;SDS011;53640;55.838;37.184;2023-03-29T05:43:25;4.75;;;3.38;;
65533;SDS011;53640;55.838;37.184;2023-03-29T05:45:56;4.57;;;3.47;;
65533;SDS011;53640;55.838;37.184;2023-03-29T05:48:34;6.25;;;3.75;;
65533;SDS011;53640;55.838;37.184;2023-03-29T05:51:08;6.57;;;3.00;;
65533;SDS011;53640;55.838;37.184;2023-03-29T05:53:35;3.70;;;2.53;;
65533;SDS011;53640;55.838;37.184;2023-03-29T05:56:06;4.85;;;2.97;;
65533;SDS011;53640;55.838;37.184;2023-03-29T05:58:35;5.32;;;2.92;;
65533;SDS011;53640;55.838;37.184;2023-03-29T06:01:02;4.13;;;3.08;;
65533;SDS011;53640;55.838;37.184;2023-03-29T06:03:53;7.43;;;3.00;;
65533;SDS011;53640;55.838;37.184;2023-03-29T06:06:28;7.57;;;3.00;;
65533;SDS011;53640;55.838;37.184;2023-03-29T06:08:55;7.38;;;3.78;;
65533;SDS011;53640;55.838;37.184;2023-03-29T06:11:29;7.50;;;3.17;;
65533;SDS011;53640;55.838;37.184;2023-03-29T06:14:02;5.63;;;3.33;;
65533;SDS011;53640;55.838;37.184;2023-03-29T06:16:33;7.43;;;3.10;;
65533;SDS011;53640;55.838;37.184;2023-03-29T06:19:03;9.68;;;3.33;;
65533;SDS011;53640;55.838;37.184;2023-03-29T06:21:34;7.25;;;3.00;;
65533;SDS011;53640;55.838;37.184;2023-03-29T06:24:02;5.35;;;3.15;;
65533;SDS011;53640;55.838;37.184;2023-03-29T06:26:36;6.50;;;2.80;;
65533;SDS011;53640;55.838;37.184;2023-03-29T06:29:04;9.35;;;3.45;;
65533;SDS011;53640;55.838;37.184;2023-03-29T06:31:31;5.32;;;3.03;;
65533;SDS011;53640;55.838;37.184;2023-03-29T06:34:02;7.82;;;3.00;;
65533;SDS011;53640;55.838;37.184;2023-03-29T06:36:49;4.28;;;3.00;;
65533;SDS011;53640;55.838;37.184;2023-03-29T06:39:24;7.85;;;3.03;;
65533;SDS011;53640;55.838;37.184;2023-03-29T06:42:15;6.70;;;2.58;;
65533;SDS011;53640;55.838;37.184;2023-03-29T06:45:05;6.40;;;2.70;;
65533;SDS011;53640;55.838;37.184;2023-03-29T06:47:37;12.65;;;3.20;;
65533;SDS011;53640;55.838;37.184;2023-03-29T06:50:05;12.18;;;2.83;;
65533;SDS011;53640;55.838;37.184;2023-03-29T06:52:43;5.75;;;2.58;;
65533;SDS011;53640;55.838;37.184;2023-03-29T06:55:18;8.18;;;2.95;;
65533;SDS011;53640;55.838;37.184;2023-03-29T06:57:54;14.55;;;2.80;;
65533;SDS011;53640;55.838;37.184;2023-03-29T07:00:21;4.60;;;3.10;;
65533;SDS011;53640;55.838;37.184;2023-03-29T07:03:06;7.22;;;2.95;;
65533;SDS011;53640;55.838;37.184;2023-03-29T07:05:37;6.05;;;3.33;;
65533;SDS011;53640;55.838;37.184;2023-03-29T07:08:13;5.88;;;3.30;;
65533;SDS011;53640;55.838;37.184;2023-03-29T07:10:56;7.57;;;3.25;;
65533;SDS011;53640;55.838;37.184;2023-03-29T07:13:42;8.95;;;3.25;;
65533;SDS011;53640;55.838;37.184;2023-03-29T07:16:12;6.40;;;3.55;;
65533;SDS011;53640;55.838;37.184;2023-03-29T07:18:50;6.45;;;3.50;;
65533;SDS011;53640;55.838;37.184;2023-03-29T07:21:38;8.55;;;3.17;;
65533;SDS011;53640;55.838;37.184;2023-03-29T07:24:05;8.05;;;3.50;;
65533;SDS011;53640;55.838;37.184;2023-03-29T07:26:36;5.22;;;3.50;;
65533;SDS011;53640;55.838;37.184;2023-03-29T07:29:03;6.35;;;3.10;;
65533;SDS011;53640;55.838;37.184;2023-03-29T07:31:29;6.82;;;3.13;;
65533;SDS011;53640;55.838;37.184;2023-03-29T07:37:53;4.82;;;3.08;;
65533;SDS011;53640;55.838;37.184;2023-03-29T07:40:24;7.53;;;3.25;;
65533;SDS011;53640;55.838;37.184;2023-03-29T07:45:26;5.65;;;3.97;;
65533;SDS011;53640;55.838;37.184;2023-03-29T07:48:02;9.45;;;3.88;;
65533;SDS011;53640;55.838;37.184;2023-03-29T07:50:47;5.22;;;3.50;;
65533;SDS011;53640;55.838;37.184;2023-03-29T07:53:19;8.82;;;4.07;;
65533;SDS011;53640;55.838;37.184;2023-03-29T07:56:27;5.57;;;3.72;;
65533;SDS011;53640;55.838;37.184;2023-03-29T08:03:21;8.23;;;3.72;;
65533;SDS011;53640;55.838;37.184;2023-03-29T08:05:49;7.07;;;4.00;;
65533;SDS011;53640;55.838;37.184;2023-03-29T08:08:15;6.10;;;3.58;;
65533;SDS011;53640;55.838;37.184;2023-03-29T08:10:59;7.53;;;3.60;;
65533;SDS011;53640;55.838;37.184;2023-03-29T08:13:35;5.25;;;3.45;;
65533;SDS011;53640;55.838;37.184;2023-03-29T08:16:25;7.63;;;4.00;;
65533;SDS011;53640;55.838;37.184;2023-03-29T08:19:07;5.15;;;3.78;;
65533;SDS011;53640;55.838;37.184;2023-03-29T08:22:05;7.20;;;3.50;;
65533;SDS011;53640;55.838;37.184;2023-03-29T08:24:50;5.47;;;4.15;;
65533;SDS011;53640;55.838;37.184;2023-03-29T08:27:34;6.35;;;3.58;;
65533;SDS011;53640;55.838;37.184;2023-03-29T08:30:03;10.15;;;3.50;;
65533;SDS011;53640;55.838;37.184;2023-03-29T08:32:47;5.88;;;3.30;;
65533;SDS011;53640;55.838;37.184;2023-03-29T08:35:33;6.00;;;3.60;;
65533;SDS011;53640;55.838;37.184;2023-03-29T08:40:52;5.35;;;3.42;;
65533;SDS011;53640;55.838;37.184;2023-03-29T08:49:11;5.10;;;3.33;;
65533;SDS011;53640;55.838;37.184;2023-03-29T08:55:32;8.43;;;3.55;;
65533;SDS011;53640;55.838;37.184;2023-03-29T08:58:23;5.05;;;3.55;;
65533;SDS011;53640;55.838;37.184;2023-03-29T09:00:59;6.30;;;3.70;;
65533;SDS011;53640;55.838;37.184;2023-03-29T09:03:38;5.95;;;3.88;;
65533;SDS011;53640;55.838;37.184;2023-03-29T09:06:21;5.35;;;3.30;;
65533;SDS011;53640;55.838;37.184;2023-03-29T09:08:54;9.45;;;3.92;;
65533;SDS011;53640;55.838;37.184;2023-03-29T09:17:09;8.10;;;3.63;;
65533;SDS011;53640;55.838;37.184;2023-03-29T09:19:55;5.00;;;3.65;;
65533;SDS011;53640;55.838;37.184;2023-03-29T09:33:16;6.95;;;4.47;;
65533;SDS011;53640;55.838;37.184;2023-03-29T09:39:43;8.45;;;4.63;;
65533;SDS011;53640;55.838;37.184;2023-03-29T09:42:14;11.57;;;4.43;;
65533;SDS011;53640;55.838;37.184;2023-03-29T09:44:46;6.78;;;4.70;;
65533;SDS011;53640;55.838;37.184;2023-03-29T09:47:56;8.55;;;4.80;;
65533;SDS011;53640;55.838;37.184;2023-03-29T09:50:29;8.60;;;4.50;;
65533;SDS011;53640;55.838;37.184;2023-03-29T09:53:08;9.13;;;4.43;;
65533;SDS011;53640;55.838;37.184;2023-03-29T09:55:42;7.15;;;4.38;;
65533;SDS011;53640;55.838;37.184;2023-03-29T09:58:43;5.53;;;4.17;;
65533;SDS011;53640;55.838;37.184;2023-03-29T10:01:16;5.88;;;4.50;;
65533;SDS011;53640;55.838;37.184;2023-03-29T10:03:49;8.15;;;3.85;;
65533;SDS011;53640;55.838;37.184;2023-03-29T10:06:17;10.98;;;4.40;;
65533;SDS011;53640;55.838;37.184;2023-03-29T10:08:52;5.15;;;4.00;;
65533;SDS011;53640;55.838;37.184;2023-03-29T10:11:29;7.78;;;4.38;;
65533;SDS011;53640;55.838;37.184;2023-03-29T10:16:32;6.63;;;3.85;;
65533;SDS011;53640;55.838;37.184;2023-03-29T10:19:13;6.25;;;4.22;;
65533;SDS011;53640;55.838;37.184;2023-03-29T10:21:57;7.28;;;4.05;;
65533;SDS011;53640;55.838;37.184;2023-03-29T10:24:26;8.45;;;4.07;;
65533;SDS011;53640;55.838;37.184;2023-03-29T10:26:55;5.25;;;3.67;;
65533;SDS011;53640;55.838;37.184;2023-03-29T10:29:24;4.75;;;3.85;;
65533;SDS011;53640;55.838;37.184;2023-03-29T10:31:52;9.70;;;4.28;;
65533;SDS011;53640;55.838;37.184;2023-03-29T10:34:20;6.53;;;4.30;;
65533;SDS011;53640;55.838;37.184;2023-03-29T10:36:52;9.75;;;4.68;;
65533;SDS011;53640;55.838;37.184;2023-03-29T10:39:23;8.75;;;4.78;;
65533;SDS011;53640;55.838;37.184;2023-03-29T10:42:01;6.50;;;4.50;;
65533;SDS011;53640;55.838;37.184;2023-03-29T10:44:33;7.75;;;4.80;;
65533;SDS011;53640;55.838;37.184;2023-03-29T10:47:17;13.47;;;4.80;;
65533;SDS011;53640;55.838;37.184;2023-03-29T10:49:47;7.28;;;4.90;;
65533;SDS011;53640;55.838;37.184;2023-03-29T10:52:19;7.05;;;4.68;;
65533;SDS011;53640;55.838;37.184;2023-03-29T10:54:46;8.52;;;4.20;;
65533;SDS011;53640;55.838;37.184;2023-03-29T10:57:25;6.05;;;4.30;;
65533;SDS011;53640;55.838;37.184;2023-03-29T11:00:20;6.20;;;4.32;;
65533;SDS011;53640;55.838;37.184;2023-03-29T11:05:53;7.35;;;4.65;;
65533;SDS011;53640;55.838;37.184;2023-03-29T11:13:58;5.85;;;4.45;;
65533;SDS011;53640;55.838;37.184;2023-03-29T11:16:37;7.00;;;4.47;;
65533;SDS011;53640;55.838;37.184;2023-03-29T11:21:53;5.40;;;4.10;;
65533;SDS011;53640;55.838;37.184;2023-03-29T11:35:47;4.72;;;3.95;;
65533;SDS011;53640;55.838;37.184;2023-03-29T11:45:04;4.38;;;3.70;;
65533;SDS011;53640;55.838;37.184;2023-03-29T11:48:30;4.30;;;3.50;;
65533;SDS011;53640;55.838;37.184;2023-03-29T11:54:06;4.85;;;3.42;;
65533;SDS011;53640;55.838;37.184;2023-03-29T12:00:37;3.90;;;3.28;;
65533;SDS011;53640;55.838;37.184;2023-03-29T12:06:19;3.95;;;3.28;;
65533;SDS011;53640;55.838;37.184;2023-03-29T12:17:31;3.92;;;3.38;;
65533;SDS011;53640;55.838;37.184;2023-03-29T12:20:22;3.70;;;3.03;;
65533;SDS011;53640;55.838;37.184;2023-03-29T12:22:59;4.18;;;3.55;;
65533;SDS011;53640;55.838;37.184;2023-03-29T12:25:51;5.18;;;3.10;;
65533;SDS011;53640;55.838;37.184;2023-03-29T12:28:32;3.58;;;3.13;;
65533;SDS011;53640;55.838;37.184;2023-03-29T12:31:15;4.13;;;3.55;;
65533;SDS011;53640;55.838;37.184;2023-03-29T12:40:20;3.22;;;3.00;;
65533;SDS011;53640;55.838;37.184;2023-03-29T12:43:53;4.75;;;2.90;;
65533;SDS011;53640;55.838;37.184;2023-03-29T12:46:24;3.28;;;2.97;;
65533;SDS011;53640;55.838;37.184;2023-03-29T12:48:56;3.75;;;3.20;;
65533;SDS011;53640;55.838;37.184;2023-03-29T12:51:31;5.25;;;3.20;;
65533;SDS011;53640;55.838;37.184;2023-03-29T12:57:24;3.55;;;2.65;;
65533;SDS011;53640;55.838;37.184;2023-03-29T13:00:09;2.65;;;2.05;;
65533;SDS011;53640;55.838;37.184;2023-03-29T13:03:39;2.60;;;2.33;;
65533;SDS011;53640;55.838;37.184;2023-03-29T13:06:10;3.92;;;2.65;;
65533;SDS011;53640;55.838;37.184;2023-03-29T13:09:00;3.60;;;2.55;;
65533;SDS011;53640;55.838;37.184;2023-03-29T13:18:25;2.67;;;2.10;;
65533;SDS011;53640;55.838;37.184;2023-03-29T13:21:24;3.15;;;2.05;;
65533;SDS011;53640;55.838;37.184;2023-03-29T13:35:30;3.72;;;2.08;;
65533;SDS011;53640;55.838;37.184;2023-03-29T13:38:27;2.17;;;1.70;;
65533;SDS011;53640;55.838;37.184;2023-03-29T13:41:21;2.80;;;2.00;;
65533;SDS011;53640;55.838;37.184;2023-03-29T13:43:52;2.25;;;2.00;;
65533;SDS011;53640;55.838;37.184;2023-03-29T13:49:10;2.22;;;2.03;;
65533;SDS011;53640;55.838;37.184;2023-03-29T13:54:41;2.10;;;1.90;;
65533;SDS011;53640;55.838;37.184;2023-03-29T13:57:14;3.67;;;2.08;;
65533;SDS011;53640;55.838;37.184;2023-03-29T13:59:46;2.15;;;1.95;;
65533;SDS011;53640;55.838;37.184;2023-03-29T14:02:20;3.03;;;2.20;;
65533;SDS011;53640;55.838;37.184;2023-03-29T14:04:52;2.47;;;2.28;;
65533;SDS011;53640;55.838;37.184;2023-03-29T14:07:19;2.92;;;2.50;;
65533;SDS011;53640;55.838;37.184;2023-03-29T14:09:51;2.60;;;2.35;;
65533;SDS011;53640;55.838;37.184;2023-03-29T14:12:19;2.55;;;2.35;;
65533;SDS011;53640;55.838;37.184;2023-03-29T14:14:46;3.03;;;2.40;;
65533;SDS011;53640;55.838;37.184;2023-03-29T14:17:17;5.82;;;2.53;;
65533;SDS011;53640;55.838;37.184;2023-03-29T14:19:46;4.28;;;2.40;;
65533;SDS011;53640;55.838;37.184;2023-03-29T14:22:14;3.20;;;2.50;;
65533;SDS011;53640;55.838;37.184;2023-03-29T14:24:49;4.25;;;2.58;;
65533;SDS011;53640;55.838;37.184;2023-03-29T14:27:18;3.22;;;2.47;;
65533;SDS011;53640;55.838;37.184;2023-03-29T14:33:39;3.13;;;2.83;;
65533;SDS011;53640;55.838;37.184;2023-03-29T14:39:57;3.20;;;2.75;;
65533;SDS011;53640;55.838;37.184;2023-03-29T14:42:25;5.10;;;2.83;;
65533;SDS011;53640;55.838;37.184;2023-03-29T14:45:02;4.03;;;2.60;;
65533;SDS011;53640;55.838;37.184;2023-03-29T14:47:30;4.00;;;2.83;;
65533;SDS011;53640;55.838;37.184;2023-03-29T14:49:58;4.70;;;2.80;;
65533;SDS011;53640;55.838;37.184;2023-03-29T14:52:27;3.50;;;2.72;;
65533;SDS011;53640;55.838;37.184;2023-03-29T14:54:57;3.83;;;3.10;;
65533;SDS011;53640;55.838;37.184;2023-03-29T14:57:27;4.88;;;3.33;;
65533;SDS011;53640;55.838;37.184;2023-03-29T14:59:59;4.38;;;3.33;;
65533;SDS011;53640;55.838;37.184;2023-03-29T15:02:32;3.28;;;2.85;;
65533;SDS011;53640;55.838;37.184;2023-03-29T15:05:03;6.05;;;3.30;;
65533;SDS011;53640;55.838;37.184;2023-03-29T15:07:32;3.88;;;3.10;;
65533;SDS011;53640;55.838;37.184;2023-03-29T15:10:02;3.45;;;3.15;;
65533;SDS011;53640;55.838;37.184;2023-03-29T15:12:31;3.58;;;3.28;;
65533;SDS011;53640;55.838;37.184;2023-03-29T15:18:37;6.43;;;3.97;;
65533;SDS011;53640;55.838;37.184;2023-03-29T15:21:35;8.27;;;3.95;;
65533;SDS011;53640;55.838;37.184;2023-03-29T15:24:34;4.88;;;3.50;;
65533;SDS011;53640;55.838;37.184;2023-03-29T15:28:24;5.85;;;3.25;;
65533;SDS011;53640;55.838;37.184;2023-03-29T15:30:56;3.85;;;3.38;;
65533;SDS011;53640;55.838;37.184;2023-03-29T15:33:33;5.03;;;3.45;;
65533;SDS011;53640;55.838;37.184;2023-03-29T15:40:09;4.97;;;3.65;;
65533;SDS011;53640;55.838;37.184;2023-03-29T15:43:19;6.25;;;3.70;;
65533;SDS011;53640;55.838;37.184;2023-03-29T15:45:49;4.10;;;3.70;;
65533;SDS011;53640;55.838;37.184;2023-03-29T15:48:39;5.45;;;4.20;;
65533;SDS011;53640;55.838;37.184;2023-03-29T15:51:16;5.03;;;3.50;;
65533;SDS011;53640;55.838;37.184;2023-03-29T15:53:45;5.87;;;4.27;;
65533;SDS011;53640;55.838;37.184;2023-03-29T15:56:24;5.47;;;4.20;;
65533;SDS011;53640;55.838;37.184;2023-03-29T15:59:17;5.03;;;4.28;;
65533;SDS011;53640;55.838;37.184;2023-03-29T16:02:52;7.80;;;4.10;;
65533;SDS011;53640;55.838;37.184;2023-03-29T16:05:21;5.40;;;4.60;;
65533;SDS011;53640;55.838;37.184;2023-03-29T16:08:23;5.80;;;4.30;;
65533;SDS011;53640;55.838;37.184;2023-03-29T16:11:19;6.25;;;4.47;;
65533;SDS011;53640;55.838;37.184;2023-03-29T16:13:47;5.50;;;4.50;;
65533;SDS011;53640;55.838;37.184;2023-03-29T16:16:14;5.50;;;4.50;;
65533;SDS011;53640;55.838;37.184;2023-03-29T16:18:41;5.55;;;4.88;;
65533;SDS011;53640;55.838;37.184;2023-03-29T16:21:12;5.78;;;4.63;;
65533;SDS011;53640;55.838;37.184;2023-03-29T16:23:51;4.88;;;4.38;;
65533;SDS011;53640;55.838;37.184;2023-03-29T16:26:18;7.78;;;5.28;;
65533;SDS011;53640;55.838;37.184;2023-03-29T16:28:44;5.20;;;4.70;;
65533;SDS011;53640;55.838;37.184;2023-03-29T16:31:13;6.50;;;5.32;;
65533;SDS011;53640;55.838;37.184;2023-03-29T16:33:40;6.88;;;5.03;;
65533;SDS011;53640;55.838;37.184;2023-03-29T16:36:07;6.88;;;4.38;;
65533;SDS011;53640;55.838;37.184;2023-03-29T16:38:34;5.10;;;4.47;;
65533;SDS011;53640;55.838;37.184;2023-03-29T16:41:00;6.10;;;5.50;;
65533;SDS011;53640;55.838;37.184;2023-03-29T16:43:27;6.32;;;5.20;;
65533;SDS011;53640;55.838;37.184;2023-03-29T16:45:53;6.25;;;5.65;;
65533;SDS011;53640;55.838;37.184;2023-03-29T16:48:20;5.85;;;4.95;;
65533;SDS011;53640;55.838;37.184;2023-03-29T16:50:46;6.38;;;5.63;;
65533;SDS011;53640;55.838;37.184;2023-03-29T16:53:14;6.35;;;5.38;;
65533;SDS011;53640;55.838;37.184;2023-03-29T16:55:41;7.50;;;6.03;;
65533;SDS011;53640;55.838;37.184;2023-03-29T16:58:07;6.88;;;5.60;;
65533;SDS011;53640;55.838;37.184;2023-03-29T17:00:34;7.10;;;6.03;;
65533;SDS011;53640;55.838;37.184;2023-03-29T17:03:00;6.95;;;5.82;;
65533;SDS011;53640;55.838;37.184;2023-03-29T17:05:27;5.93;;;5.28;;
65533;SDS011;53640;55.838;37.184;2023-03-29T17:08:00;7.10;;;6.00;;
65533;SDS011;53640;55.838;37.184;2023-03-29T17:10:27;7.75;;;6.65;;
65533;SDS011;53640;55.838;37.184;2023-03-29T17:12:53;7.30;;;6.10;;
65533;SDS011;53640;55.838;37.184;2023-03-29T17:15:20;9.90;;;6.80;;
65533;SDS011;53640;55.838;37.184;2023-03-29T17:17:47;11.98;;;7.63;;
65533;SDS011;53640;55.838;37.184;2023-03-29T17:20:13;8.23;;;6.68;;
65533;SDS011;53640;55.838;37.184;2023-03-29T17:22:40;9.68;;;7.38;;
65533;SDS011;53640;55.838;37.184;2023-03-29T17:25:07;9.75;;;8.13;;
65533;SDS011;53640;55.838;37.184;2023-03-29T17:27:35;11.63;;;7.85;;
65533;SDS011;53640;55.838;37.184;2023-03-29T17:30:03;9.90;;;7.25;;
65533;SDS011;53640;55.838;37.184;2023-03-29T17:32:31;11.40;;;7.57;;
65533;SDS011;53640;55.838;37.184;2023-03-29T17:34:58;9.95;;;8.63;;
65533;SDS011;53640;55.838;37.184;2023-03-29T17:37:25;11.45;;;8.57;;
65533;SDS011;53640;55.838;37.184;2023-03-29T17:39:55;10.32;;;8.77;;
65533;SDS011;53640;55.838;37.184;2023-03-29T17:42:21;11.25;;;9.18;;
65533;SDS011;53640;55.838;37.184;2023-03-29T17:44:50;10.23;;;8.70;;
65533;SDS011;53640;55.838;37.184;2023-03-29T17:47:18;10.52;;;8.43;;
65533;SDS011;53640;55.838;37.184;2023-03-29T17:49:46;12.88;;;9.50;;
65533;SDS011;53640;55.838;37.184;2023-03-29T17:52:12;12.43;;;9.95;;
65533;SDS011;53640;55.838;37.184;2023-03-29T17:54:39;11.98;;;9.05;;
65533;SDS011;53640;55.838;37.184;2023-03-29T17:57:05;11.68;;;10.32;;
65533;SDS011;53640;55.838;37.184;2023-03-29T17:59:32;14.55;;;10.80;;
65533;SDS011;53640;55.838;37.184;2023-03-29T18:01:58;12.35;;;9.27;;
65533;SDS011;53640;55.838;37.184;2023-03-29T18:04:27;13.88;;;9.45;;